createdAt,value
2022-12-01T00:01:36.594Z,8.30
2022-12-01T00:04:04.785Z,8.80
2022-12-01T00:06:32.925Z,9.53
2022-12-01T00:09:20.499Z,8.90
2022-12-01T00:11:49.050Z,8.03
2022-12-01T00:14:17.293Z,8.70
2022-12-01T00:16:45.536Z,8.10
2022-12-01T00:19:13.529Z,7.63
2022-12-01T00:21:41.585Z,8.80
2022-12-01T00:24:12.815Z,9.33
2022-12-01T00:26:40.849Z,8.70
2022-12-01T00:29:10.819Z,11.50
2022-12-01T00:31:39.142Z,11.80
2022-12-01T00:34:11.319Z,13.43
2022-12-01T00:36:40.333Z,13.37
2022-12-01T00:39:11.120Z,12.23
2022-12-01T00:41:40.460Z,11.37
2022-12-01T00:44:08.441Z,11.07
2022-12-01T00:46:39.519Z,11.03
2022-12-01T00:49:07.536Z,10.57
2022-12-01T00:51:35.472Z,11.17
2022-12-01T00:54:03.392Z,9.90
2022-12-01T00:56:35.633Z,10.30
2022-12-01T00:59:05.024Z,11.10
2022-12-01T01:01:33.240Z,12.03
2022-12-01T01:04:01.244Z,9.40
2022-12-01T01:06:29.635Z,10.30
2022-12-01T01:08:57.647Z,10.40
2022-12-01T01:11:27.830Z,11.00
2022-12-01T01:13:55.814Z,11.03
2022-12-01T01:16:25.200Z,11.47
2022-12-01T01:18:53.457Z,12.27
2022-12-01T01:21:23.156Z,11.80
2022-12-01T01:23:55.767Z,12.30
2022-12-01T01:26:26.444Z,12.00
2022-12-01T01:28:58.251Z,12.10
2022-12-01T01:31:30.103Z,12.37
2022-12-01T01:33:59.409Z,13.90
2022-12-01T01:36:27.898Z,12.93
2022-12-01T01:38:56.411Z,11.80
2022-12-01T01:41:25.532Z,12.50
2022-12-01T01:43:56.217Z,13.77
2022-12-01T01:46:28.475Z,12.37
2022-12-01T01:49:01.069Z,12.60
2022-12-01T01:51:34.876Z,12.10
2022-12-01T01:54:07.654Z,12.90
2022-12-01T01:56:37.857Z,12.60
2022-12-01T01:59:06.088Z,12.17
2022-12-01T02:01:35.515Z,10.93
2022-12-01T02:04:04.584Z,10.40
2022-12-01T02:06:32.672Z,11.27
2022-12-01T02:09:00.654Z,12.40
2022-12-01T02:11:52.339Z,13.47
2022-12-01T02:15:00.269Z,11.43
2022-12-01T02:17:41.867Z,11.17
2022-12-01T02:21:07.447Z,12.63
2022-12-01T02:24:32.286Z,11.17
2022-12-01T02:27:05.468Z,11.23
2022-12-01T02:30:09.591Z,13.03
2022-12-01T02:33:00.689Z,12.23
2022-12-01T02:35:36.955Z,12.90
2022-12-01T02:38:15.697Z,12.23
2022-12-01T02:40:51.057Z,11.13
2022-12-01T02:43:28.565Z,12.53
2022-12-01T02:46:03.591Z,13.40
2022-12-01T02:48:38.419Z,12.40
2022-12-01T02:51:13.498Z,12.27
2022-12-01T02:53:43.983Z,12.57
2022-12-01T02:56:15.943Z,10.97
2022-12-01T02:58:44.483Z,12.00
2022-12-01T03:01:28.758Z,11.93
2022-12-01T03:04:22.713Z,12.20
2022-12-01T03:07:00.485Z,10.63
2022-12-01T03:09:41.278Z,12.30
2022-12-01T03:12:21.071Z,12.50
2022-12-01T03:15:03.316Z,11.10
2022-12-01T03:17:39.253Z,11.90
2022-12-01T03:20:16.589Z,11.47
2022-12-01T03:22:52.352Z,14.67
2022-12-01T03:25:23.003Z,12.10
2022-12-01T03:28:20.249Z,12.07
2022-12-01T03:30:46.499Z,12.70
2022-12-01T03:33:20.165Z,10.70
2022-12-01T03:35:55.418Z,14.10
2022-12-01T03:38:26.590Z,12.80
2022-12-01T03:41:16.276Z,13.53
2022-12-01T03:43:50.106Z,13.40
2022-12-01T03:46:25.754Z,14.17
2022-12-01T03:48:54.275Z,12.60
2022-12-01T03:51:32.786Z,13.00
2022-12-01T03:54:09.795Z,13.90
2022-12-01T03:56:43.910Z,13.77
2022-12-01T03:59:17.294Z,13.10
2022-12-01T04:01:48.614Z,12.17
2022-12-01T04:04:17.042Z,14.43
2022-12-01T04:06:49.967Z,14.50
2022-12-01T04:09:18.315Z,14.43
2022-12-01T04:12:03.732Z,13.60
2022-12-01T04:14:31.926Z,14.37
2022-12-01T04:16:59.911Z,14.77
2022-12-01T04:19:27.924Z,14.27
2022-12-01T04:21:57.297Z,13.60
2022-12-01T04:24:25.234Z,15.50
2022-12-01T04:26:54.954Z,15.27
2022-12-01T04:29:23.263Z,14.33
2022-12-01T04:31:51.289Z,14.23
2022-12-01T04:34:19.323Z,14.40
2022-12-01T04:36:47.284Z,15.17
2022-12-01T04:39:16.837Z,14.13
2022-12-01T04:41:44.817Z,15.30
2022-12-01T04:44:13.005Z,15.40
2022-12-01T04:46:41.200Z,14.83
2022-12-01T04:49:09.230Z,14.50
2022-12-01T04:51:39.719Z,15.10
2022-12-01T04:54:07.781Z,16.90
2022-12-01T04:56:37.116Z,16.37
2022-12-01T04:59:05.124Z,15.90
2022-12-01T05:01:33.173Z,15.80
2022-12-01T05:04:01.259Z,15.43
2022-12-01T05:06:30.275Z,16.17
2022-12-01T05:09:00.827Z,15.13
2022-12-01T05:11:31.201Z,16.10
2022-12-01T05:14:03.602Z,15.33
2022-12-01T05:16:34.262Z,14.10
2022-12-01T05:19:23.033Z,16.07
2022-12-01T05:21:52.626Z,14.90
2022-12-01T05:24:22.355Z,17.70
2022-12-01T05:26:50.338Z,16.70
2022-12-01T05:29:22.461Z,18.43
2022-12-01T05:31:50.552Z,14.87
2022-12-01T05:34:18.774Z,15.53
2022-12-01T05:36:46.802Z,16.30
2022-12-01T05:39:14.965Z,16.13
2022-12-01T05:41:42.970Z,18.00
2022-12-01T05:44:10.942Z,17.70
2022-12-01T05:46:40.324Z,18.43
2022-12-01T05:49:08.351Z,15.23
2022-12-01T05:51:36.368Z,15.60
2022-12-01T05:54:04.730Z,16.30
2022-12-01T05:56:32.704Z,15.93
2022-12-01T05:59:00.701Z,16.53
2022-12-01T06:01:28.925Z,18.07
2022-12-01T06:03:58.326Z,17.47
2022-12-01T06:06:26.496Z,16.60
2022-12-01T06:08:54.526Z,17.03
2022-12-01T06:11:22.682Z,17.73
2022-12-01T06:13:50.652Z,16.37
2022-12-01T06:16:18.665Z,17.27
2022-12-01T06:18:46.690Z,17.10
2022-12-01T06:21:16.016Z,15.50
2022-12-01T06:23:44.046Z,15.57
2022-12-01T06:26:12.008Z,16.10
2022-12-01T06:28:39.999Z,15.77
2022-12-01T06:31:08.019Z,15.13
2022-12-01T06:33:36.081Z,16.40
2022-12-01T06:36:07.049Z,15.33
2022-12-01T06:38:38.211Z,15.60
2022-12-01T06:41:06.713Z,13.70
2022-12-01T06:43:37.031Z,13.77
2022-12-01T06:46:05.481Z,14.63
2022-12-01T06:48:34.344Z,14.63
2022-12-01T06:51:03.348Z,14.90
2022-12-01T06:53:31.436Z,13.73
2022-12-01T06:56:03.034Z,14.90
2022-12-01T06:58:31.851Z,15.37
2022-12-01T07:01:00.269Z,14.63
2022-12-01T07:03:28.669Z,12.77
2022-12-01T07:05:58.521Z,14.80
2022-12-01T07:08:26.639Z,14.87
2022-12-01T07:11:04.669Z,12.17
2022-12-01T07:13:33.874Z,14.30
2022-12-01T07:16:03.101Z,15.13
2022-12-01T07:18:32.242Z,18.47
2022-12-01T07:21:04.221Z,15.67
2022-12-01T07:23:32.650Z,15.60
2022-12-01T07:26:04.399Z,17.03
2022-12-01T07:28:32.513Z,16.23
2022-12-01T07:31:04.934Z,15.53
2022-12-01T07:33:33.229Z,15.87
2022-12-01T07:36:01.297Z,16.60
2022-12-01T07:38:30.032Z,17.03
2022-12-01T07:41:06.911Z,17.20
2022-12-01T07:43:35.349Z,15.50
2022-12-01T07:46:08.644Z,15.67
2022-12-01T07:48:38.110Z,15.47
2022-12-01T07:51:07.281Z,16.17
2022-12-01T07:53:35.518Z,15.80
2022-12-01T07:56:08.565Z,15.30
2022-12-01T07:58:37.532Z,16.43
2022-12-01T08:01:10.680Z,15.83
2022-12-01T08:03:39.254Z,14.63
2022-12-01T08:06:10.704Z,15.27
2022-12-01T08:08:42.840Z,15.30
2022-12-01T08:11:17.182Z,15.60
2022-12-01T08:13:48.940Z,16.67
2022-12-01T08:16:20.707Z,17.50
2022-12-01T08:18:48.914Z,16.87
2022-12-01T08:21:22.393Z,17.03
2022-12-01T08:23:54.013Z,15.90
2022-12-01T08:26:25.345Z,16.07
2022-12-01T08:28:53.459Z,17.37
2022-12-01T08:31:24.310Z,16.97
2022-12-01T08:33:52.995Z,16.63
2022-12-01T08:36:21.796Z,17.17
2022-12-01T08:38:53.462Z,16.10
2022-12-01T08:41:24.189Z,16.97
2022-12-01T08:44:00.764Z,16.50
2022-12-01T08:46:33.062Z,15.33
2022-12-01T08:49:01.887Z,16.90
2022-12-01T08:51:30.385Z,15.97
2022-12-01T08:54:00.439Z,15.80
2022-12-01T08:56:34.392Z,16.23
2022-12-01T08:59:02.550Z,15.40
2022-12-01T09:01:30.816Z,15.40
2022-12-01T09:04:08.618Z,15.97
2022-12-01T09:06:44.182Z,14.50
2022-12-01T09:09:16.192Z,15.97
2022-12-01T09:11:46.908Z,15.20
2022-12-01T09:14:16.992Z,13.60
2022-12-01T09:16:47.504Z,12.50
2022-12-01T09:19:22.234Z,13.97
2022-12-01T09:21:52.472Z,12.83
2022-12-01T09:24:20.473Z,12.90
2022-12-01T09:26:50.386Z,14.40
2022-12-01T09:29:18.704Z,15.67
2022-12-01T09:31:46.745Z,15.60
2022-12-01T09:34:19.754Z,13.70
2022-12-01T09:36:48.552Z,14.53
2022-12-01T09:39:19.235Z,13.87
2022-12-01T09:41:51.852Z,15.17
2022-12-01T09:44:35.357Z,15.30
2022-12-01T09:47:12.563Z,11.80
2022-12-01T09:49:51.527Z,16.00
2022-12-01T09:52:21.163Z,14.03
2022-12-01T09:54:49.945Z,13.97
2022-12-01T09:57:32.630Z,12.90
2022-12-01T10:00:02.895Z,14.83
2022-12-01T10:02:39.256Z,14.60
2022-12-01T10:05:15.500Z,14.23
2022-12-01T10:07:49.908Z,14.37
2022-12-01T10:10:27.290Z,13.63
2022-12-01T10:12:56.745Z,12.50
2022-12-01T10:15:36.347Z,13.70
2022-12-01T10:18:18.816Z,13.70
2022-12-01T10:21:04.403Z,15.73
2022-12-01T10:23:55.710Z,13.00
2022-12-01T10:26:32.994Z,14.40
2022-12-01T10:29:17.748Z,14.17
2022-12-01T10:31:54.932Z,12.70
2022-12-01T10:34:25.704Z,13.70
2022-12-01T10:36:54.025Z,15.07
2022-12-01T10:39:29.312Z,13.43
2022-12-01T10:42:04.894Z,12.97
2022-12-01T10:44:35.777Z,15.87
2022-12-01T10:47:04.451Z,15.00
2022-12-01T10:49:40.964Z,15.07
2022-12-01T10:52:32.166Z,13.20
2022-12-01T10:55:01.021Z,15.40
2022-12-01T10:57:31.501Z,16.40
2022-12-01T11:00:05.082Z,14.03
2022-12-01T11:02:34.055Z,16.07
2022-12-01T11:05:05.988Z,17.87
2022-12-01T11:07:43.406Z,15.77
2022-12-01T11:10:21.439Z,15.93
2022-12-01T11:12:56.631Z,15.40
2022-12-01T11:15:30.469Z,15.43
2022-12-01T11:18:01.859Z,14.80
2022-12-01T11:20:35.489Z,16.10
2022-12-01T11:23:26.324Z,15.50
2022-12-01T11:26:06.509Z,17.17
2022-12-01T11:28:36.049Z,16.67
2022-12-01T11:31:08.843Z,15.77
2022-12-01T11:33:48.538Z,15.63
2022-12-01T11:36:46.206Z,16.77
2022-12-01T11:39:25.408Z,14.33
2022-12-01T11:41:58.994Z,14.97
2022-12-01T11:47:24.357Z,16.70
2022-12-01T11:49:58.821Z,16.13
2022-12-01T11:52:31.045Z,13.83
2022-12-01T11:55:08.493Z,15.30
2022-12-01T11:57:41.051Z,14.53
2022-12-01T12:00:21.271Z,15.07
2022-12-01T12:03:19.963Z,15.80
2022-12-01T12:09:22.818Z,14.50
2022-12-01T12:12:01.609Z,15.80
2022-12-01T12:14:57.990Z,14.80
2022-12-01T12:17:47.040Z,14.30
2022-12-01T12:20:39.284Z,14.70
2022-12-01T12:23:35.740Z,15.50
2022-12-01T12:26:11.775Z,14.90
2022-12-01T12:28:56.139Z,16.17
2022-12-01T12:31:31.895Z,15.80
2022-12-01T12:34:23.089Z,15.20
2022-12-01T12:37:06.520Z,14.33
2022-12-01T12:39:52.788Z,14.97
2022-12-01T12:42:30.603Z,13.93
2022-12-01T12:45:07.374Z,13.60
2022-12-01T12:47:55.716Z,16.40
2022-12-01T12:50:33.210Z,14.43
2022-12-01T12:53:06.829Z,12.53
2022-12-01T12:55:40.184Z,14.90
2022-12-01T12:58:20.369Z,13.40
2022-12-01T13:00:54.815Z,18.27
2022-12-01T13:03:34.222Z,14.80
2022-12-01T13:06:09.513Z,15.10
2022-12-01T13:08:45.620Z,13.40
2022-12-01T13:11:20.704Z,14.00
2022-12-01T13:14:02.971Z,13.97
2022-12-01T13:16:36.753Z,14.27
2022-12-01T13:19:12.628Z,12.60
2022-12-01T13:21:44.468Z,30.60
2022-12-01T13:24:22.754Z,14.70
2022-12-01T13:26:54.900Z,14.90
2022-12-01T13:29:25.537Z,15.80
2022-12-01T13:31:55.838Z,15.07
2022-12-01T13:34:27.705Z,12.73
2022-12-01T13:36:57.282Z,13.10
2022-12-01T13:39:28.759Z,14.30
2022-12-01T13:42:04.379Z,14.20
2022-12-01T13:44:39.855Z,12.47
2022-12-01T13:47:38.528Z,12.37
2022-12-01T13:50:56.230Z,11.50
2022-12-01T13:53:33.586Z,11.87
2022-12-01T13:56:25.124Z,11.40
2022-12-01T13:58:57.450Z,12.03
2022-12-01T14:01:48.741Z,11.30
2022-12-01T14:04:29.932Z,12.00
2022-12-01T14:07:34.870Z,11.87
2022-12-01T14:10:30.828Z,11.70
2022-12-01T14:13:05.055Z,12.77
2022-12-01T14:15:42.809Z,10.87
2022-12-01T14:18:34.305Z,11.17
2022-12-01T14:21:05.560Z,10.63
2022-12-01T14:23:36.215Z,13.17
2022-12-01T14:26:14.363Z,12.73
2022-12-01T14:29:30.247Z,13.83
2022-12-01T14:32:23.239Z,11.90
2022-12-01T14:35:12.611Z,12.50
2022-12-01T14:37:49.138Z,11.33
2022-12-01T14:40:28.895Z,12.10
2022-12-01T14:43:16.207Z,12.30
2022-12-01T14:45:56.676Z,11.97
2022-12-01T14:48:33.885Z,11.40
2022-12-01T14:51:17.744Z,11.40
2022-12-01T14:53:49.649Z,11.70
2022-12-01T14:56:23.965Z,11.53
2022-12-01T14:58:56.769Z,11.87
2022-12-01T15:01:31.730Z,11.80
2022-12-01T15:04:04.627Z,11.53
2022-12-01T15:06:37.477Z,12.53
2022-12-01T15:12:02.009Z,14.03
2022-12-01T15:14:33.822Z,13.37
2022-12-01T15:17:05.511Z,12.53
2022-12-01T15:19:37.797Z,14.50
2022-12-01T15:22:12.407Z,13.57
2022-12-01T15:24:40.703Z,12.70
2022-12-01T15:27:30.033Z,10.40
2022-12-01T15:30:03.944Z,13.23
2022-12-01T15:32:38.487Z,13.20
2022-12-01T15:35:18.846Z,11.90
2022-12-01T15:37:47.676Z,13.20
2022-12-01T15:43:16.830Z,13.30
2022-12-01T15:45:51.998Z,14.07
2022-12-01T15:48:30.300Z,13.43
2022-12-01T15:51:08.104Z,13.33
2022-12-01T15:53:39.736Z,13.47
2022-12-01T15:56:10.908Z,12.10
2022-12-01T15:58:44.854Z,11.40
2022-12-01T16:01:16.063Z,11.57
2022-12-01T16:03:59.433Z,12.87
2022-12-01T16:06:32.834Z,11.33
2022-12-01T16:09:04.327Z,10.47
2022-12-01T16:11:32.704Z,12.83
2022-12-01T16:14:05.137Z,12.57
2022-12-01T16:16:44.548Z,11.37
2022-12-01T16:19:29.027Z,13.60
2022-12-01T16:22:05.697Z,11.90
2022-12-01T16:24:40.286Z,12.60
2022-12-01T16:27:19.514Z,10.87
2022-12-01T16:29:52.178Z,10.03
2022-12-01T16:32:24.297Z,11.97
2022-12-01T16:34:55.068Z,11.03
2022-12-01T16:37:25.604Z,9.60
2022-12-01T16:39:53.822Z,11.80
2022-12-01T16:42:22.869Z,10.30
2022-12-01T16:44:52.318Z,9.90
2022-12-01T16:47:22.867Z,9.13
2022-12-01T16:49:51.633Z,9.50
2022-12-01T16:52:44.168Z,8.97
2022-12-01T16:55:37.587Z,9.27
2022-12-01T16:58:05.857Z,9.00
2022-12-01T17:00:34.061Z,10.23
2022-12-01T17:03:02.710Z,8.70
2022-12-01T17:05:30.743Z,9.80
2022-12-01T17:08:00.460Z,9.67
2022-12-01T17:10:28.562Z,8.70
2022-12-01T17:12:56.587Z,9.27
2022-12-01T17:15:24.592Z,9.53
2022-12-01T17:17:52.679Z,8.20
2022-12-01T17:20:20.909Z,9.47
2022-12-01T17:22:48.926Z,9.43
2022-12-01T17:25:18.531Z,10.23
2022-12-01T17:27:46.541Z,8.70
2022-12-01T17:30:15.117Z,9.80
2022-12-01T17:32:43.069Z,8.50
2022-12-01T17:35:11.912Z,10.03
2022-12-01T17:37:39.898Z,9.80
2022-12-01T17:40:13.704Z,9.90
2022-12-01T17:42:50.021Z,8.67
2022-12-01T17:45:19.093Z,10.33
2022-12-01T17:47:47.205Z,10.67
2022-12-01T17:50:15.556Z,9.87
2022-12-01T17:52:43.574Z,9.00
2022-12-01T17:55:14.109Z,11.27
2022-12-01T17:57:43.463Z,9.77
2022-12-01T18:00:13.565Z,10.40
2022-12-01T18:02:41.660Z,11.57
2022-12-01T18:05:11.094Z,10.47
2022-12-01T18:07:39.282Z,11.13
2022-12-01T18:10:08.179Z,9.40
2022-12-01T18:12:38.495Z,11.30
2022-12-01T18:15:09.912Z,10.70
2022-12-01T18:17:37.980Z,10.80
2022-12-01T18:20:08.192Z,10.67
2022-12-01T18:22:36.120Z,10.73
2022-12-01T18:25:04.319Z,11.70
2022-12-01T18:27:36.295Z,12.90
2022-12-01T18:30:08.114Z,10.53
2022-12-01T18:32:36.521Z,11.60
2022-12-01T18:35:05.867Z,12.77
2022-12-01T18:37:36.497Z,11.03
2022-12-01T18:40:05.657Z,11.20
2022-12-01T18:42:33.733Z,12.47
2022-12-01T18:45:01.833Z,11.53
2022-12-01T18:47:31.366Z,10.67
2022-12-01T18:50:01.745Z,10.43
2022-12-01T18:52:29.838Z,11.30
2022-12-01T18:54:58.317Z,12.97
2022-12-01T18:57:26.421Z,13.67
2022-12-01T18:59:57.286Z,11.93
2022-12-01T19:02:25.416Z,10.47
2022-12-01T19:04:54.831Z,11.57
2022-12-01T19:07:28.162Z,13.03
2022-12-01T19:09:57.931Z,14.97
2022-12-01T19:12:25.990Z,12.00
2022-12-01T19:14:54.233Z,11.87
2022-12-01T19:17:22.365Z,13.40
2022-12-01T19:19:50.386Z,14.70
2022-12-01T19:22:19.806Z,13.27
2022-12-01T19:24:50.391Z,13.20
2022-12-01T19:27:19.215Z,11.30
2022-12-01T19:29:47.381Z,12.03
2022-12-01T19:32:15.614Z,14.40
2022-12-01T19:34:43.745Z,11.37
2022-12-01T19:37:13.048Z,11.97
2022-12-01T19:39:44.569Z,13.63
2022-12-01T19:42:12.601Z,13.20
2022-12-01T19:44:40.582Z,12.10
2022-12-01T19:47:10.015Z,13.37
2022-12-01T19:49:40.441Z,11.87
2022-12-01T19:52:08.414Z,12.90
2022-12-01T19:54:37.670Z,11.93
2022-12-01T19:57:09.281Z,12.53
2022-12-01T19:59:37.337Z,12.77
2022-12-01T20:02:05.448Z,11.93
2022-12-01T20:04:35.375Z,11.47
2022-12-01T20:07:05.122Z,12.33
2022-12-01T20:09:36.037Z,13.00
2022-12-01T20:12:04.327Z,11.77
2022-12-01T20:14:36.099Z,11.90
2022-12-01T20:17:04.415Z,10.57
2022-12-01T20:19:32.520Z,11.63
2022-12-01T20:22:00.563Z,12.43
2022-12-01T20:24:28.607Z,10.80
2022-12-01T20:26:58.370Z,12.10
2022-12-01T20:29:29.769Z,12.90
2022-12-01T20:32:02.924Z,12.50
2022-12-01T20:34:34.417Z,12.67
2022-12-01T20:37:04.429Z,12.53
2022-12-01T20:39:34.603Z,11.90
2022-12-01T20:42:05.914Z,11.70
2022-12-01T20:44:33.950Z,11.63
2022-12-01T20:47:03.412Z,12.20
2022-12-01T20:49:31.472Z,12.13
2022-12-01T20:51:59.542Z,12.17
2022-12-01T20:54:29.288Z,14.00
2022-12-01T20:56:58.806Z,13.50
2022-12-01T20:59:27.552Z,11.20
2022-12-01T21:01:56.040Z,17.00
2022-12-01T21:04:25.530Z,14.47
2022-12-01T21:06:57.214Z,14.80
2022-12-01T21:09:25.710Z,13.60
2022-12-01T21:12:11.280Z,12.70
2022-12-01T21:14:43.685Z,12.30
2022-12-01T21:17:37.723Z,12.37
2022-12-01T21:20:21.432Z,10.60
2022-12-01T21:22:51.250Z,11.30
2022-12-01T21:25:24.522Z,11.63
2022-12-01T21:27:56.542Z,13.60
2022-12-01T21:30:26.301Z,12.27
2022-12-01T21:32:55.341Z,11.80
2022-12-01T21:35:26.241Z,11.57
2022-12-01T21:38:00.727Z,10.77
2022-12-01T21:40:29.350Z,12.30
2022-12-01T21:43:03.161Z,11.73
2022-12-01T21:45:32.778Z,11.87
2022-12-01T21:48:10.153Z,13.57
2022-12-01T21:50:39.488Z,10.97
2022-12-01T21:53:13.954Z,12.30
2022-12-01T21:55:44.101Z,13.17
2022-12-01T21:58:29.563Z,13.77
2022-12-01T22:00:59.461Z,12.57
2022-12-01T22:03:34.054Z,12.20
2022-12-01T22:06:29.628Z,14.83
2022-12-01T22:09:02.332Z,15.07
2022-12-01T22:11:32.128Z,14.00
2022-12-01T22:14:12.741Z,12.60
2022-12-01T22:16:44.424Z,11.63
2022-12-01T22:19:27.177Z,12.10
2022-12-01T22:22:04.472Z,10.87
2022-12-01T22:24:40.901Z,11.90
2022-12-01T22:27:31.615Z,12.40
2022-12-01T22:30:02.711Z,10.90
2022-12-01T22:32:53.690Z,9.40
2022-12-01T22:35:34.026Z,12.30
2022-12-01T22:38:32.325Z,9.00
2022-12-01T22:41:05.418Z,11.10
2022-12-01T22:43:45.484Z,9.57
2022-12-01T22:46:25.891Z,9.33
2022-12-01T22:48:56.395Z,10.87
2022-12-01T22:51:31.531Z,10.70
2022-12-01T22:54:17.321Z,9.77
2022-12-01T22:56:46.930Z,9.27
2022-12-01T22:59:19.831Z,10.90
2022-12-01T23:01:53.691Z,10.50
2022-12-01T23:04:27.503Z,11.13
2022-12-01T23:07:06.323Z,9.87
2022-12-01T23:09:39.852Z,10.40
2022-12-01T23:12:28.976Z,11.70
2022-12-01T23:15:00.266Z,9.20
2022-12-01T23:17:32.077Z,10.60
2022-12-01T23:20:32.431Z,11.27
2022-12-01T23:23:03.388Z,10.53
2022-12-01T23:25:35.140Z,10.77
2022-12-01T23:28:07.801Z,9.40
2022-12-01T23:30:37.652Z,11.10
2022-12-01T23:33:21.591Z,12.70
2022-12-01T23:35:55.229Z,10.97
2022-12-01T23:38:26.064Z,9.37
2022-12-01T23:40:59.403Z,12.43
2022-12-01T23:43:31.774Z,11.83
2022-12-01T23:46:05.374Z,10.57
2022-12-01T23:48:37.423Z,10.33
2022-12-01T23:51:12.574Z,11.50
2022-12-01T23:53:41.454Z,11.30
2022-12-01T23:56:17.650Z,10.80
2022-12-01T23:58:45.822Z,12.30
